createdAt,value
2022-09-25T00:02:05.212Z,60.02
2022-09-25T00:04:34.456Z,58.72
2022-09-25T00:07:03.387Z,58.54
2022-09-25T00:09:32.248Z,58.92
2022-09-25T00:12:01.615Z,58.77
2022-09-25T00:14:30.712Z,59.10
2022-09-25T00:16:57.408Z,59.20
2022-09-25T00:19:42.707Z,59.29
2022-09-25T00:22:12.066Z,59.36
2022-09-25T00:24:38.819Z,59.12
2022-09-25T00:27:08.539Z,59.11
2022-09-25T00:29:39.527Z,59.00
2022-09-25T00:32:08.330Z,58.58
2022-09-25T00:34:35.178Z,58.50
2022-09-25T00:37:01.971Z,58.50
2022-09-25T00:39:31.702Z,59.00
2022-09-25T00:42:00.694Z,58.98
2022-09-25T00:45:03.978Z,59.68
2022-09-25T00:47:51.897Z,58.82
2022-09-25T00:50:37.125Z,58.88
2022-09-25T00:53:11.699Z,59.14
2022-09-25T00:55:38.721Z,59.10
2022-09-25T00:58:06.825Z,59.09
2022-09-25T01:00:36.025Z,58.45
2022-09-25T01:03:02.860Z,59.00
2022-09-25T01:05:34.133Z,58.66
2022-09-25T01:08:02.341Z,58.76
2022-09-25T01:10:29.378Z,58.99
2022-09-25T01:12:56.684Z,58.83
2022-09-25T01:15:32.456Z,58.83
2022-09-25T01:18:36.734Z,59.07
2022-09-25T01:21:32.501Z,59.17
2022-09-25T01:24:08.119Z,58.97
2022-09-25T01:26:44.205Z,58.89
2022-09-25T01:29:25.534Z,58.83
2022-09-25T01:31:55.184Z,58.90
2022-09-25T01:34:28.599Z,58.65
2022-09-25T01:37:04.270Z,59.02
2022-09-25T01:39:45.626Z,59.11
2022-09-25T01:42:44.787Z,59.20
2022-09-25T01:45:16.077Z,59.75
2022-09-25T01:47:48.993Z,59.24
2022-09-25T01:50:32.837Z,58.80
2022-09-25T01:53:08.224Z,58.95
2022-09-25T01:55:40.996Z,58.99
2022-09-25T01:58:30.826Z,58.78
2022-09-25T02:01:10.536Z,59.20
2022-09-25T02:03:45.801Z,58.75
2022-09-25T02:06:19.788Z,59.14
2022-09-25T02:08:52.598Z,59.28
2022-09-25T02:11:19.805Z,59.49
2022-09-25T02:13:56.650Z,59.47
2022-09-25T02:16:29.210Z,59.31
2022-09-25T02:19:18.209Z,59.51
2022-09-25T02:21:50.246Z,59.41
2022-09-25T02:24:27.447Z,59.35
2022-09-25T02:26:54.203Z,59.56
2022-09-25T02:29:21.430Z,59.86
2022-09-25T02:31:59.731Z,60.32
2022-09-25T02:34:29.167Z,59.85
2022-09-25T02:36:58.535Z,60.10
2022-09-25T02:39:25.459Z,60.26
2022-09-25T02:42:27.491Z,60.00
2022-09-25T02:45:12.318Z,60.55
2022-09-25T02:48:13.199Z,60.46
2022-09-25T02:51:06.032Z,60.11
2022-09-25T02:53:32.660Z,60.34
2022-09-25T02:56:13.212Z,60.52
2022-09-25T02:58:41.622Z,60.96
2022-09-25T03:01:10.784Z,60.80
2022-09-25T03:03:38.813Z,61.18
2022-09-25T03:06:06.871Z,61.11
2022-09-25T03:08:39.509Z,61.42
2022-09-25T03:11:19.769Z,61.60
2022-09-25T03:13:46.491Z,62.10
2022-09-25T03:16:36.430Z,61.84
2022-09-25T03:19:03.710Z,61.57
2022-09-25T03:21:33.028Z,61.81
2022-09-25T03:24:01.173Z,62.04
2022-09-25T03:26:30.507Z,62.11
2022-09-25T03:28:58.437Z,62.08
2022-09-25T03:31:25.177Z,62.29
2022-09-25T03:33:52.236Z,62.43
2022-09-25T03:36:23.118Z,62.38
2022-09-25T03:38:52.546Z,62.37
2022-09-25T03:41:21.322Z,62.75
2022-09-25T03:43:51.734Z,62.64
2022-09-25T03:46:20.730Z,62.48
2022-09-25T03:48:49.790Z,62.56
2022-09-25T03:51:16.489Z,62.49
2022-09-25T03:53:43.217Z,62.69
2022-09-25T03:56:15.634Z,62.64
2022-09-25T03:58:44.843Z,62.35
2022-09-25T04:01:11.886Z,62.38
2022-09-25T04:03:39.565Z,62.24
2022-09-25T04:06:07.873Z,62.68
2022-09-25T04:08:37.562Z,62.40
2022-09-25T04:11:04.846Z,62.07
2022-09-25T04:13:36.445Z,62.19
2022-09-25T04:16:09.632Z,61.75
2022-09-25T04:18:38.743Z,61.82
2022-09-25T04:21:12.124Z,61.93
2022-09-25T04:23:42.281Z,62.03
2022-09-25T04:26:14.325Z,61.61
2022-09-25T04:28:45.515Z,61.70
2022-09-25T04:31:12.224Z,61.86
2022-09-25T04:33:50.482Z,61.39
2022-09-25T04:36:20.196Z,61.18
2022-09-25T04:38:48.477Z,61.19
2022-09-25T04:41:20.157Z,61.07
2022-09-25T04:43:47.465Z,60.99
2022-09-25T04:46:21.080Z,60.95
2022-09-25T04:48:49.160Z,60.67
2022-09-25T04:51:18.299Z,60.32
2022-09-25T04:53:47.331Z,60.35
2022-09-25T04:56:17.086Z,60.28
2022-09-25T04:58:48.542Z,60.31
2022-09-25T05:01:19.799Z,60.42
2022-09-25T05:03:53.691Z,60.26
2022-09-25T05:06:23.406Z,59.92
2022-09-25T05:08:50.645Z,60.16
2022-09-25T05:11:19.765Z,59.92
2022-09-25T05:13:50.252Z,59.92
2022-09-25T05:16:19.304Z,59.94
2022-09-25T05:18:46.381Z,59.89
2022-09-25T05:21:13.094Z,59.98
2022-09-25T05:23:40.122Z,60.14
2022-09-25T05:26:07.304Z,60.32
2022-09-25T05:28:34.493Z,60.15
2022-09-25T05:31:08.956Z,60.09
2022-09-25T05:33:38.539Z,59.64
2022-09-25T05:36:07.847Z,59.35
2022-09-25T05:38:34.789Z,59.16
2022-09-25T05:41:08.951Z,59.11
2022-09-25T05:43:42.961Z,58.82
2022-09-25T05:46:11.023Z,58.73
2022-09-25T05:48:40.575Z,58.67
2022-09-25T05:51:07.464Z,58.59
2022-09-25T05:53:34.703Z,58.55
2022-09-25T05:56:05.645Z,58.48
2022-09-25T05:58:38.799Z,58.32
2022-09-25T06:01:06.620Z,58.36
2022-09-25T06:03:36.222Z,58.21
2022-09-25T06:06:02.905Z,58.21
2022-09-25T06:08:32.835Z,57.92
2022-09-25T06:11:02.398Z,57.80
2022-09-25T06:13:31.991Z,57.75
2022-09-25T06:15:59.053Z,57.92
2022-09-25T06:18:26.357Z,57.89
2022-09-25T06:20:59.941Z,57.91
2022-09-25T06:23:29.361Z,57.86
2022-09-25T06:26:02.885Z,58.09
2022-09-25T06:28:30.099Z,58.03
2022-09-25T06:31:00.175Z,57.78
2022-09-25T06:33:26.892Z,57.60
2022-09-25T06:35:53.567Z,57.80
2022-09-25T06:38:22.744Z,57.85
2022-09-25T06:40:56.085Z,57.75
2022-09-25T06:43:26.440Z,57.82
2022-09-25T06:45:55.823Z,57.83
2022-09-25T06:48:23.046Z,57.60
2022-09-25T06:50:56.612Z,57.27
2022-09-25T06:53:24.597Z,57.70
2022-09-25T06:55:52.320Z,57.29
2022-09-25T06:58:20.939Z,57.16
2022-09-25T07:00:48.604Z,57.13
2022-09-25T07:03:33.818Z,56.59
2022-09-25T07:06:08.777Z,56.33
2022-09-25T07:08:40.220Z,56.44
2022-09-25T07:11:07.036Z,56.39
2022-09-25T07:13:38.309Z,56.14
2022-09-25T07:16:11.657Z,56.01
2022-09-25T07:18:41.282Z,56.23
2022-09-25T07:21:19.153Z,56.11
2022-09-25T07:23:52.083Z,55.74
2022-09-25T07:26:22.599Z,55.90
2022-09-25T07:28:59.379Z,55.72
2022-09-25T07:31:33.811Z,55.06
2022-09-25T07:34:05.887Z,54.97
2022-09-25T07:36:35.493Z,54.80
2022-09-25T07:39:02.134Z,54.49
2022-09-25T07:41:34.332Z,54.47
2022-09-25T07:44:18.069Z,54.00
2022-09-25T07:46:47.830Z,54.00
2022-09-25T07:49:14.583Z,53.76
2022-09-25T07:51:41.355Z,53.35
2022-09-25T07:54:12.856Z,53.22
2022-09-25T07:56:39.936Z,51.45
2022-09-25T07:59:06.697Z,52.73
2022-09-25T08:01:40.976Z,53.03
2022-09-25T08:04:10.329Z,52.74
2022-09-25T08:06:39.313Z,53.28
2022-09-25T08:09:10.317Z,53.26
2022-09-25T08:11:37.558Z,53.05
2022-09-25T08:14:04.320Z,52.44
2022-09-25T08:16:31.017Z,52.84
2022-09-25T08:19:00.024Z,53.06
2022-09-25T08:21:26.683Z,53.68
2022-09-25T08:23:54.336Z,53.52
2022-09-25T08:26:25.676Z,53.07
2022-09-25T08:28:54.576Z,53.60
2022-09-25T08:31:26.399Z,53.91
2022-09-25T08:33:54.415Z,54.16
2022-09-25T08:36:24.107Z,53.90
2022-09-25T08:38:56.420Z,53.31
2022-09-25T08:41:26.294Z,53.47
2022-09-25T08:44:18.203Z,53.08
2022-09-25T08:47:29.535Z,52.55
2022-09-25T08:50:11.132Z,51.63
2022-09-25T08:52:42.293Z,51.40
2022-09-25T08:55:49.861Z,52.46
2022-09-25T08:58:35.120Z,52.37
2022-09-25T09:01:04.936Z,52.55
2022-09-25T09:03:44.422Z,52.63
2022-09-25T09:06:16.345Z,52.05
2022-09-25T09:08:46.146Z,52.40
2022-09-25T09:11:18.053Z,52.56
2022-09-25T09:14:06.445Z,52.36
2022-09-25T09:16:45.011Z,52.71
2022-09-25T09:19:12.851Z,52.39
2022-09-25T09:21:44.524Z,52.36
2022-09-25T09:24:23.907Z,52.53
2022-09-25T09:27:27.478Z,52.72
2022-09-25T09:30:06.136Z,52.94
2022-09-25T09:32:39.149Z,52.93
2022-09-25T09:35:15.223Z,52.95
2022-09-25T09:37:47.249Z,52.46
2022-09-25T09:40:26.267Z,53.49
2022-09-25T09:43:04.198Z,53.40
2022-09-25T09:45:38.611Z,53.15
2022-09-25T09:48:06.432Z,53.50
2022-09-25T09:50:47.199Z,53.09
2022-09-25T09:53:55.847Z,53.18
2022-09-25T09:56:35.830Z,53.04
2022-09-25T09:59:41.292Z,53.28
2022-09-25T10:02:40.651Z,53.83
2022-09-25T10:05:30.706Z,54.14
2022-09-25T10:07:57.458Z,53.83
2022-09-25T10:10:37.397Z,53.69
2022-09-25T10:13:10.294Z,53.45
2022-09-25T10:15:42.888Z,53.63
2022-09-25T10:18:09.772Z,53.15
2022-09-25T10:20:43.358Z,53.98
2022-09-25T10:23:28.278Z,52.99
2022-09-25T10:26:00.092Z,53.60
2022-09-25T10:28:28.412Z,53.43
2022-09-25T10:30:56.284Z,53.86
2022-09-25T10:33:25.025Z,54.33
2022-09-25T10:35:55.073Z,54.56
2022-09-25T10:38:25.778Z,55.29
2022-09-25T10:41:19.983Z,56.29
2022-09-25T10:43:57.059Z,56.50
2022-09-25T10:46:50.084Z,56.89
2022-09-25T10:49:41.442Z,56.54
2022-09-25T10:52:10.955Z,56.92
2022-09-25T10:54:44.775Z,56.96
2022-09-25T10:57:34.223Z,56.68
2022-09-25T11:00:06.468Z,56.81
2022-09-25T11:02:34.246Z,58.13
2022-09-25T11:05:01.890Z,57.77
2022-09-25T11:07:28.942Z,58.60
2022-09-25T11:10:00.323Z,58.84
2022-09-25T11:12:31.436Z,58.29
2022-09-25T11:15:05.863Z,58.39
2022-09-25T11:17:42.125Z,57.80
2022-09-25T11:20:19.315Z,58.28
2022-09-25T11:22:50.505Z,57.62
2022-09-25T11:25:26.324Z,57.65
2022-09-25T11:28:04.864Z,58.03
2022-09-25T11:30:43.535Z,58.68
2022-09-25T11:33:36.581Z,59.76
2022-09-25T11:36:07.449Z,59.80
2022-09-25T11:38:58.247Z,59.63
2022-09-25T11:41:37.140Z,60.00
2022-09-25T11:44:34.639Z,60.15
2022-09-25T11:47:18.078Z,59.69
2022-09-25T11:49:48.462Z,59.35
2022-09-25T11:52:43.784Z,59.65
2022-09-25T11:55:28.701Z,59.10
2022-09-25T11:58:16.791Z,59.31
2022-09-25T12:00:50.685Z,59.19
2022-09-25T12:03:30.366Z,59.21
2022-09-25T12:06:01.082Z,59.42
2022-09-25T12:08:49.047Z,59.34
2022-09-25T12:11:28.592Z,59.90
2022-09-25T12:14:11.988Z,59.99
2022-09-25T12:16:48.030Z,60.60
2022-09-25T12:19:36.606Z,60.81
2022-09-25T12:22:14.096Z,60.90
2022-09-25T12:24:58.812Z,61.12
2022-09-25T12:27:47.667Z,61.23
2022-09-25T12:30:23.977Z,60.49
2022-09-25T12:32:53.649Z,60.46
2022-09-25T12:35:39.158Z,61.22
2022-09-25T12:38:15.659Z,60.95
2022-09-25T12:41:07.501Z,61.80
2022-09-25T12:43:41.276Z,61.71
2022-09-25T12:46:32.589Z,61.45
2022-09-25T12:49:13.559Z,61.62
2022-09-25T12:51:43.876Z,61.91
2022-09-25T12:54:22.852Z,62.73
2022-09-25T12:57:14.202Z,63.66
2022-09-25T12:59:49.240Z,64.06
2022-09-25T13:03:15.085Z,64.62
2022-09-25T13:05:57.438Z,65.43
2022-09-25T13:08:40.074Z,67.72
2022-09-25T13:11:12.628Z,68.47
2022-09-25T13:13:49.010Z,68.47
2022-09-25T13:16:16.157Z,68.73
2022-09-25T13:19:11.261Z,69.41
2022-09-25T13:21:45.740Z,68.78
2022-09-25T13:24:17.688Z,68.96
2022-09-25T13:26:51.301Z,68.93
2022-09-25T13:29:35.597Z,68.61
2022-09-25T13:32:23.874Z,69.15
2022-09-25T13:35:02.935Z,69.10
2022-09-25T13:37:32.246Z,69.11
2022-09-25T13:40:18.615Z,69.46
2022-09-25T13:42:46.339Z,69.78
2022-09-25T13:45:22.436Z,70.20
2022-09-25T13:47:54.873Z,70.23
2022-09-25T13:50:24.552Z,70.33
2022-09-25T13:53:18.280Z,70.03
2022-09-25T13:55:49.975Z,71.62
2022-09-25T13:58:21.158Z,70.93
2022-09-25T14:00:53.897Z,71.72
2022-09-25T14:03:46.077Z,72.50
2022-09-25T14:06:17.669Z,73.18
2022-09-25T14:08:50.741Z,72.83
2022-09-25T14:11:19.919Z,73.65
2022-09-25T14:13:48.261Z,74.47
2022-09-25T14:16:38.443Z,75.49
2022-09-25T14:19:06.687Z,75.86
2022-09-25T14:21:35.220Z,76.62
2022-09-25T14:24:32.906Z,76.96
2022-09-25T14:27:06.280Z,76.58
2022-09-25T14:29:40.376Z,77.32
2022-09-25T14:32:53.821Z,76.58
2022-09-25T14:35:25.084Z,76.85
2022-09-25T14:38:36.944Z,77.82
2022-09-25T14:41:23.027Z,77.97
2022-09-25T14:43:52.685Z,78.61
2022-09-25T14:46:27.120Z,78.42
2022-09-25T14:48:59.789Z,78.81
2022-09-25T14:51:43.511Z,79.24
2022-09-25T14:54:15.959Z,79.90
2022-09-25T14:56:48.948Z,80.82
2022-09-25T14:59:37.823Z,81.02
2022-09-25T15:02:04.750Z,81.56
2022-09-25T15:04:34.563Z,82.14
2022-09-25T15:07:12.413Z,83.03
2022-09-25T15:09:49.063Z,83.40
2022-09-25T15:12:33.881Z,83.57
2022-09-25T15:15:11.428Z,83.09
2022-09-25T15:17:47.868Z,83.23
2022-09-25T15:20:20.998Z,83.42
2022-09-25T15:22:52.885Z,83.83
2022-09-25T15:25:39.833Z,83.46
2022-09-25T15:28:08.953Z,84.51
2022-09-25T15:30:41.741Z,85.16
2022-09-25T15:34:02.336Z,84.98
2022-09-25T15:36:29.131Z,85.04
2022-09-25T15:39:02.793Z,84.82
2022-09-25T15:41:29.553Z,84.61
2022-09-25T15:44:19.014Z,84.78
2022-09-25T15:46:50.282Z,84.51
2022-09-25T15:49:24.536Z,84.30
2022-09-25T15:52:00.350Z,83.97
2022-09-25T15:54:45.225Z,83.83
2022-09-25T15:57:14.928Z,83.65
2022-09-25T16:00:03.343Z,83.94
2022-09-25T16:02:52.219Z,85.21
2022-09-25T16:05:24.419Z,84.25
2022-09-25T16:07:51.167Z,84.73
2022-09-25T16:10:17.761Z,83.89
2022-09-25T16:12:49.203Z,84.58
2022-09-25T16:15:28.529Z,84.74
2022-09-25T16:18:05.717Z,84.73
2022-09-25T16:20:37.191Z,84.68
2022-09-25T16:23:06.520Z,84.91
2022-09-25T16:25:43.353Z,85.15
2022-09-25T16:28:36.324Z,85.52
2022-09-25T16:31:08.191Z,85.86
2022-09-25T16:33:39.020Z,85.55
2022-09-25T16:36:17.621Z,85.72
2022-09-25T16:39:07.932Z,85.90
2022-09-25T16:41:38.765Z,85.38
2022-09-25T16:44:17.882Z,85.48
2022-09-25T16:46:55.431Z,85.53
2022-09-25T16:49:26.689Z,85.82
2022-09-25T16:51:54.837Z,86.18
2022-09-25T16:54:22.575Z,86.28
2022-09-25T16:56:51.695Z,86.05
2022-09-25T16:59:22.166Z,86.20
2022-09-25T17:02:02.380Z,85.98
2022-09-25T17:04:30.888Z,86.20
2022-09-25T17:06:58.647Z,86.07
2022-09-25T17:09:29.160Z,85.84
2022-09-25T17:12:07.327Z,85.51
2022-09-25T17:14:34.264Z,85.50
2022-09-25T17:17:00.988Z,85.59
2022-09-25T17:19:28.006Z,85.31
2022-09-25T17:21:58.087Z,85.51
2022-09-25T17:24:27.961Z,85.52
2022-09-25T17:26:54.793Z,85.58
2022-09-25T17:29:22.200Z,85.83
2022-09-25T17:31:49.005Z,85.54
2022-09-25T17:34:28.515Z,85.50
2022-09-25T17:36:58.026Z,85.47
2022-09-25T17:39:27.588Z,85.27
2022-09-25T17:41:54.694Z,84.94
2022-09-25T17:44:23.749Z,84.49
2022-09-25T17:46:51.889Z,84.70
2022-09-25T17:49:21.697Z,84.59
2022-09-25T17:51:48.517Z,84.60
2022-09-25T17:54:23.302Z,84.17
2022-09-25T17:56:52.266Z,84.63
2022-09-25T17:59:22.273Z,84.21
2022-09-25T18:01:54.821Z,83.30
2022-09-25T18:04:24.000Z,82.86
2022-09-25T18:06:53.187Z,83.61
2022-09-25T18:09:20.122Z,83.40
2022-09-25T18:11:49.162Z,83.38
2022-09-25T18:14:18.290Z,83.27
2022-09-25T18:16:45.308Z,83.15
2022-09-25T18:19:38.060Z,83.52
2022-09-25T18:22:21.832Z,83.33
2022-09-25T18:24:56.267Z,82.83
2022-09-25T18:27:31.005Z,83.76
2022-09-25T18:29:59.946Z,83.45
2022-09-25T18:32:31.389Z,83.25
2022-09-25T18:35:03.011Z,82.60
2022-09-25T18:37:29.815Z,83.18
2022-09-25T18:39:58.801Z,83.39
2022-09-25T18:42:25.484Z,82.53
2022-09-25T18:44:53.362Z,82.89
2022-09-25T18:47:22.202Z,83.52
2022-09-25T18:49:51.678Z,83.70
2022-09-25T18:52:23.391Z,82.98
2022-09-25T18:54:49.944Z,83.16
2022-09-25T18:57:19.203Z,83.87
2022-09-25T18:59:50.395Z,83.24
2022-09-25T19:02:22.519Z,83.53
2022-09-25T19:04:51.316Z,83.47
2022-09-25T19:07:19.663Z,83.42
2022-09-25T19:09:46.493Z,82.88
2022-09-25T19:12:17.697Z,82.94
2022-09-25T19:14:45.477Z,83.25
2022-09-25T19:17:15.903Z,83.28
2022-09-25T19:19:46.339Z,83.35
2022-09-25T19:22:19.928Z,82.29
2022-09-25T19:24:47.808Z,82.57
2022-09-25T19:27:18.962Z,82.57
2022-09-25T19:29:46.072Z,82.61
2022-09-25T19:32:15.885Z,82.55
2022-09-25T19:34:42.877Z,82.30
2022-09-25T19:37:12.562Z,82.55
2022-09-25T19:39:58.719Z,82.46
2022-09-25T19:42:37.736Z,82.57
2022-09-25T19:45:04.813Z,82.30
2022-09-25T19:47:32.061Z,81.67
2022-09-25T19:50:03.515Z,81.63
2022-09-25T19:52:30.341Z,81.86
2022-09-25T19:54:59.379Z,81.65
2022-09-25T19:57:31.015Z,82.23
2022-09-25T19:59:57.744Z,81.86
2022-09-25T20:02:24.546Z,81.96
2022-09-25T20:04:54.113Z,81.86
2022-09-25T20:07:23.334Z,81.83
2022-09-25T20:09:50.047Z,82.97
2022-09-25T20:12:16.713Z,82.72
2022-09-25T20:14:45.772Z,83.26
2022-09-25T20:17:17.088Z,83.49
2022-09-25T20:19:49.678Z,82.86
2022-09-25T20:22:16.838Z,82.90
2022-09-25T20:24:48.268Z,84.25
2022-09-25T20:27:15.695Z,83.64
2022-09-25T20:29:44.126Z,84.76
2022-09-25T20:32:13.372Z,84.71
2022-09-25T20:34:39.913Z,85.28
2022-09-25T20:37:06.717Z,84.91
2022-09-25T20:39:35.621Z,84.66
2022-09-25T20:42:02.692Z,83.95
2022-09-25T20:44:31.547Z,84.14
2022-09-25T20:47:00.621Z,84.08
2022-09-25T20:49:31.029Z,84.19
2022-09-25T20:51:57.775Z,84.06
2022-09-25T20:54:27.365Z,83.61
2022-09-25T20:56:56.753Z,84.14
2022-09-25T20:59:23.649Z,83.17
2022-09-25T21:01:54.153Z,82.67
2022-09-25T21:04:20.891Z,83.10
2022-09-25T21:06:47.624Z,83.06
2022-09-25T21:09:25.496Z,83.68
2022-09-25T21:11:53.832Z,83.36
2022-09-25T21:14:26.106Z,83.59
2022-09-25T21:16:56.373Z,83.26
2022-09-25T21:19:23.967Z,83.76
2022-09-25T21:21:51.111Z,83.03
2022-09-25T21:24:19.598Z,82.93
2022-09-25T21:26:47.260Z,83.10
2022-09-25T21:29:20.064Z,83.24
2022-09-25T21:31:50.847Z,83.38
2022-09-25T21:34:21.046Z,83.27
2022-09-25T21:36:50.246Z,82.64
2022-09-25T21:39:21.173Z,82.46
2022-09-25T21:41:50.938Z,82.46
2022-09-25T21:44:20.530Z,82.36
2022-09-25T21:46:47.232Z,82.51
2022-09-25T21:49:20.766Z,82.34
2022-09-25T21:51:48.281Z,82.11
2022-09-25T21:54:17.649Z,82.46
2022-09-25T21:56:49.139Z,82.08
2022-09-25T21:59:16.429Z,81.24
2022-09-25T22:01:43.281Z,80.92
2022-09-25T22:04:12.351Z,81.28
2022-09-25T22:06:41.472Z,81.42
2022-09-25T22:09:17.275Z,81.70
2022-09-25T22:11:47.664Z,81.34
2022-09-25T22:14:16.565Z,81.40
2022-09-25T22:16:48.823Z,80.68
2022-09-25T22:19:20.080Z,80.71
2022-09-25T22:21:48.352Z,80.85
2022-09-25T22:24:18.266Z,80.86
2022-09-25T22:26:47.382Z,81.03
2022-09-25T22:29:17.122Z,80.91
2022-09-25T22:31:44.333Z,80.67
2022-09-25T22:34:22.189Z,81.07
2022-09-25T22:36:57.878Z,81.00
2022-09-25T22:39:26.211Z,80.58
2022-09-25T22:41:56.333Z,80.33
2022-09-25T22:44:26.046Z,80.34
2022-09-25T22:46:52.782Z,79.68
2022-09-25T22:49:19.517Z,80.04
2022-09-25T22:51:48.865Z,79.92
2022-09-25T22:54:20.398Z,80.49
2022-09-25T22:56:47.129Z,79.86
2022-09-25T22:59:18.441Z,79.51
2022-09-25T23:01:49.912Z,79.55
2022-09-25T23:04:19.654Z,80.18
2022-09-25T23:06:46.844Z,80.03
2022-09-25T23:09:18.570Z,79.94
2022-09-25T23:11:45.867Z,80.30
2022-09-25T23:14:17.074Z,79.73
2022-09-25T23:16:45.052Z,80.01
2022-09-25T23:19:14.937Z,80.43
2022-09-25T23:21:42.124Z,80.69
2022-09-25T23:24:14.933Z,80.31
2022-09-25T23:26:41.875Z,80.55
2022-09-25T23:29:17.497Z,80.43
2022-09-25T23:31:45.844Z,80.48
2022-09-25T23:34:15.226Z,80.73
2022-09-25T23:36:46.436Z,80.51
2022-09-25T23:39:18.639Z,80.38
2022-09-25T23:41:45.713Z,80.07
2022-09-25T23:44:12.404Z,79.97
2022-09-25T23:46:44.087Z,80.58
2022-09-25T23:49:14.174Z,80.27
2022-09-25T23:51:43.532Z,80.26
2022-09-25T23:54:10.512Z,80.13
2022-09-25T23:56:41.085Z,80.14
2022-09-25T23:59:11.237Z,80.85
